Time;durP1;ratioP1;P1;durP2;ratioP2;P2;SDS_P1;SDS_P2;PMS_P1;PMS_P2;Temp;Humidity;BMP_temperature;BMP_pressure;BME280_temperature;BME280_humidity;BME280_pressure;Samples;Min_cycle;Max_cycle;Signal;HPM_P1;HPM_P2
2023/05/04 00:00:20;;;;;;;4.70;2.38;;;;;;;;;;4996547;28;20185;-50
2023/05/04 00:02:46;;;;;;;5.55;2.53;;;;;;;;;;4996220;28;20235;-49
2023/05/04 00:05:12;;;;;;;3.28;2.38;;;;;;;;;;4979571;28;20189;-49
2023/05/04 00:07:38;;;;;;;3.95;2.60;;;;;;;;;;4995116;28;20185;-49
2023/05/04 00:10:04;;;;;;;4.90;2.60;;;;;;;;;;4995802;28;20793;-49
2023/05/04 00:12:30;;;;;;;2.75;2.53;;;;;;;;;;4996463;28;20181;-49
2023/05/04 00:14:56;;;;;;;4.82;2.45;;;;;;;;;;4996411;28;20185;-49
2023/05/04 00:17:22;;;;;;;3.42;2.80;;;;;;;;;;4995708;28;20189;-49
2023/05/04 00:19:48;;;;;;;2.97;2.40;;;;;;;;;;4995249;28;20177;-49
2023/05/04 00:22:14;;;;;;;2.78;2.40;;;;;;;;;;4996172;28;20181;-49
2023/05/04 00:24:42;;;;;;;3.63;2.90;;;;;;;;;;4996301;28;20188;-49
2023/05/04 00:27:09;;;;;;;4.32;2.30;;;;;;;;;;4995490;28;20177;-50
2023/05/04 00:29:35;;;;;;;2.80;2.30;;;;;;;;;;4994012;28;20215;-48
2023/05/04 00:32:01;;;;;;;3.22;2.22;;;;;;;;;;4995699;28;20291;-50
2023/05/04 00:34:27;;;;;;;2.72;2.13;;;;;;;;;;4995518;28;20193;-49
2023/05/04 00:36:53;;;;;;;3.13;2.40;;;;;;;;;;4995265;28;20200;-49
2023/05/04 00:39:18;;;;;;;3.65;2.50;;;;;;;;;;4990549;28;20181;-49
2023/05/04 00:41:44;;;;;;;3.95;2.30;;;;;;;;;;4993912;28;20204;-49
2023/05/04 00:44:10;;;;;;;3.97;2.03;;;;;;;;;;4991810;28;20200;-49
2023/05/04 00:46:37;;;;;;;3.72;2.60;;;;;;;;;;4995052;28;20189;-50
2023/05/04 00:49:03;;;;;;;2.40;2.20;;;;;;;;;;4994481;28;20189;-50
2023/05/04 00:51:29;;;;;;;4.10;2.42;;;;;;;;;;4994801;28;20221;-50
2023/05/04 00:53:55;;;;;;;2.53;2.30;;;;;;;;;;4993808;28;20200;-49
2023/05/04 00:56:25;;;;;;;3.95;2.42;;;;;;;;;;4993423;28;20197;-49
2023/05/04 00:58:56;;;;;;;2.50;2.30;;;;;;;;;;4992944;28;20528;-50
2023/05/04 01:01:22;;;;;;;3.92;2.55;;;;;;;;;;4995198;28;20553;-49
2023/05/04 01:03:51;;;;;;;3.25;2.75;;;;;;;;;;4992478;28;20223;-50
2023/05/04 01:06:22;;;;;;;4.60;2.90;;;;;;;;;;4994741;28;20189;-49
2023/05/04 01:08:58;;;;;;;2.97;2.38;;;;;;;;;;4988223;28;20209;-49
2023/05/04 01:11:30;;;;;;;3.45;2.47;;;;;;;;;;4992591;28;20288;-49
2023/05/04 01:13:56;;;;;;;2.40;2.13;;;;;;;;;;4993633;28;20181;-49
2023/05/04 01:16:22;;;;;;;2.53;2.30;;;;;;;;;;4994014;28;20256;-50
2023/05/04 01:18:48;;;;;;;2.88;2.25;;;;;;;;;;4994347;28;20260;-50
2023/05/04 01:21:14;;;;;;;2.97;2.30;;;;;;;;;;4994110;28;20217;-49
2023/05/04 01:23:40;;;;;;;5.63;2.60;;;;;;;;;;4994641;28;20208;-50
2023/05/04 01:26:06;;;;;;;5.80;2.60;;;;;;;;;;4994688;28;20195;-50
2023/05/04 01:28:43;;;;;;;2.30;2.10;;;;;;;;;;4994670;28;20687;-50
2023/05/04 01:31:10;;;;;;;4.72;2.40;;;;;;;;;;4993878;28;20219;-49
2023/05/04 01:33:36;;;;;;;3.40;2.42;;;;;;;;;;4994400;28;20471;-50
2023/05/04 01:36:02;;;;;;;3.03;2.65;;;;;;;;;;4994392;28;20267;-50
2023/05/04 01:38:29;;;;;;;2.90;2.38;;;;;;;;;;4993103;28;20193;-49
2023/05/04 01:40:55;;;;;;;2.38;2.10;;;;;;;;;;4993860;28;20188;-50
2023/05/04 01:43:21;;;;;;;2.67;2.47;;;;;;;;;;4995098;28;20243;-50
2023/05/04 01:45:47;;;;;;;3.00;2.65;;;;;;;;;;4993641;28;20189;-49
2023/05/04 01:48:13;;;;;;;3.40;2.42;;;;;;;;;;4987655;28;20470;-50
2023/05/04 01:50:39;;;;;;;2.90;2.33;;;;;;;;;;4991164;28;20733;-50
2023/05/04 01:53:06;;;;;;;2.58;2.20;;;;;;;;;;4994152;28;20177;-50
2023/05/04 01:55:31;;;;;;;4.85;2.45;;;;;;;;;;4994630;28;20219;-50
2023/05/04 01:57:57;;;;;;;2.95;2.30;;;;;;;;;;4993755;28;20182;-50
2023/05/04 02:00:23;;;;;;;3.25;2.42;;;;;;;;;;4993603;28;20665;-50
2023/05/04 02:02:50;;;;;;;2.97;2.38;;;;;;;;;;4994034;28;20189;-50
2023/05/04 02:05:16;;;;;;;3.78;2.50;;;;;;;;;;4994850;28;20284;-50
2023/05/04 02:07:41;;;;;;;3.90;2.53;;;;;;;;;;4992078;28;20556;-50
2023/05/04 02:10:08;;;;;;;2.67;2.40;;;;;;;;;;4994437;28;20189;-50
2023/05/04 02:12:34;;;;;;;2.42;2.17;;;;;;;;;;4993584;28;21921;-49
2023/05/04 02:15:00;;;;;;;3.42;2.25;;;;;;;;;;4995648;28;20185;-50
2023/05/04 02:17:26;;;;;;;2.92;2.30;;;;;;;;;;4997424;28;20315;-49
2023/05/04 02:19:51;;;;;;;2.30;2.08;;;;;;;;;;4997401;28;20264;-48
2023/05/04 02:22:17;;;;;;;3.58;2.35;;;;;;;;;;4997367;28;20448;-49
2023/05/04 02:24:43;;;;;;;4.50;2.25;;;;;;;;;;4997690;28;20184;-50
2023/05/04 02:27:09;;;;;;;2.22;2.03;;;;;;;;;;4997208;28;20184;-50
2023/05/04 02:29:36;;;;;;;3.38;2.25;;;;;;;;;;4997645;28;20441;-50
2023/05/04 02:32:02;;;;;;;2.25;2.05;;;;;;;;;;4997146;28;20213;-50
2023/05/04 02:34:29;;;;;;;2.58;2.03;;;;;;;;;;4998031;28;20185;-50
2023/05/04 02:36:55;;;;;;;2.22;2.08;;;;;;;;;;4997627;28;20177;-50
2023/05/04 02:39:21;;;;;;;4.97;2.50;;;;;;;;;;4996302;28;20459;-49
2023/05/04 02:41:46;;;;;;;2.33;2.03;;;;;;;;;;4995469;28;20597;-49
2023/05/04 02:44:12;;;;;;;5.03;2.42;;;;;;;;;;4997612;28;20272;-50
2023/05/04 02:46:38;;;;;;;2.30;2.10;;;;;;;;;;4994309;28;20199;-49
2023/05/04 02:49:05;;;;;;;4.90;2.30;;;;;;;;;;4997793;28;20557;-49
2023/05/04 02:51:31;;;;;;;3.60;2.50;;;;;;;;;;4997590;28;20212;-50
2023/05/04 02:53:57;;;;;;;3.67;2.40;;;;;;;;;;4996907;28;20177;-49
2023/05/04 02:56:23;;;;;;;2.47;1.98;;;;;;;;;;4996731;28;20197;-50
2023/05/04 02:58:49;;;;;;;4.03;2.38;;;;;;;;;;4995808;28;20623;-50
2023/05/04 03:01:14;;;;;;;3.88;1.95;;;;;;;;;;4996403;28;20181;-49
2023/05/04 03:03:40;;;;;;;3.30;2.25;;;;;;;;;;4996426;28;20193;-50
2023/05/04 03:06:06;;;;;;;3.00;2.22;;;;;;;;;;4997447;28;20231;-49
2023/05/04 03:08:32;;;;;;;4.97;2.40;;;;;;;;;;4996822;28;20184;-49
2023/05/04 03:10:58;;;;;;;3.35;2.35;;;;;;;;;;4997480;28;20596;-50
2023/05/04 03:13:24;;;;;;;3.65;2.38;;;;;;;;;;4995643;28;20185;-49
2023/05/04 03:15:50;;;;;;;4.40;2.40;;;;;;;;;;4997319;28;20185;-49
2023/05/04 03:18:16;;;;;;;2.58;2.33;;;;;;;;;;4997022;28;20188;-49
2023/05/04 03:20:42;;;;;;;3.00;2.20;;;;;;;;;;4997121;28;20279;-49
2023/05/04 03:23:08;;;;;;;3.08;2.03;;;;;;;;;;4994145;28;20196;-49
2023/05/04 03:25:34;;;;;;;3.05;2.03;;;;;;;;;;4996678;28;20461;-50
2023/05/04 03:28:00;;;;;;;2.75;2.25;;;;;;;;;;4995937;28;20466;-50
2023/05/04 03:30:25;;;;;;;3.85;2.08;;;;;;;;;;4996810;28;20205;-50
2023/05/04 03:32:51;;;;;;;3.33;2.20;;;;;;;;;;4996261;28;20188;-50
2023/05/04 03:35:17;;;;;;;3.83;2.20;;;;;;;;;;4996835;28;20508;-50
2023/05/04 03:37:43;;;;;;;3.80;2.40;;;;;;;;;;4995409;28;20216;-49
2023/05/04 03:40:09;;;;;;;2.95;2.17;;;;;;;;;;4996273;28;20216;-50
2023/05/04 03:42:38;;;;;;;5.38;2.20;;;;;;;;;;4995385;28;20572;-50
2023/05/04 03:45:05;;;;;;;13.63;3.90;;;;;;;;;;4996456;28;20181;-50
2023/05/04 03:47:31;;;;;;;9.73;3.38;;;;;;;;;;4996167;28;20182;-50
2023/05/04 03:49:56;;;;;;;7.47;3.20;;;;;;;;;;4995856;28;20183;-49
2023/05/04 03:52:22;;;;;;;8.70;3.13;;;;;;;;;;4996751;28;20838;-49
2023/05/04 03:54:48;;;;;;;7.63;3.30;;;;;;;;;;4995873;28;20209;-50
2023/05/04 03:57:15;;;;;;;10.13;3.33;;;;;;;;;;4996126;28;20213;-49
2023/05/04 03:59:41;;;;;;;8.38;3.10;;;;;;;;;;4994465;28;20192;-49
2023/05/04 04:02:07;;;;;;;5.95;2.78;;;;;;;;;;4996408;28;20196;-50
2023/05/04 04:04:33;;;;;;;16.25;3.90;;;;;;;;;;4995170;28;20185;-51
2023/05/04 04:06:59;;;;;;;36.65;9.18;;;;;;;;;;4996305;28;20549;-48
2023/05/04 04:09:25;;;;;;;38.25;10.27;;;;;;;;;;4995965;28;20216;-49
2023/05/04 04:11:50;;;;;;;31.50;8.50;;;;;;;;;;4996577;28;20232;-49
2023/05/04 04:14:16;;;;;;;32.08;8.15;;;;;;;;;;4995310;28;20259;-49
2023/05/04 04:16:42;;;;;;;33.92;8.63;;;;;;;;;;4995350;28;20212;-48
2023/05/04 04:19:08;;;;;;;27.65;7.90;;;;;;;;;;4994252;28;20188;-48
2023/05/04 04:21:34;;;;;;;23.38;7.50;;;;;;;;;;4995587;28;20865;-49
2023/05/04 04:24:00;;;;;;;26.70;7.22;;;;;;;;;;4995361;28;20247;-49
2023/05/04 04:26:27;;;;;;;24.83;7.13;;;;;;;;;;4995917;28;20557;-49
2023/05/04 04:28:53;;;;;;;17.83;6.63;;;;;;;;;;4995633;28;20215;-49
2023/05/04 04:31:19;;;;;;;20.65;6.22;;;;;;;;;;4995661;28;20201;-49
2023/05/04 04:33:46;;;;;;;19.02;6.45;;;;;;;;;;4994517;28;20177;-48
2023/05/04 04:36:15;;;;;;;17.60;5.47;;;;;;;;;;4995621;28;20191;-48
2023/05/04 04:38:41;;;;;;;17.40;5.63;;;;;;;;;;4994587;28;20173;-48
2023/05/04 04:41:07;;;;;;;13.57;5.30;;;;;;;;;;4996054;28;20191;-48
2023/05/04 04:43:33;;;;;;;21.15;5.93;;;;;;;;;;4994594;28;20204;-49
2023/05/04 04:45:59;;;;;;;17.38;5.30;;;;;;;;;;4994843;28;20196;-48
2023/05/04 04:48:25;;;;;;;15.65;5.28;;;;;;;;;;4994049;28;20185;-49
2023/05/04 04:50:51;;;;;;;20.02;5.55;;;;;;;;;;4995497;28;20209;-49
2023/05/04 04:53:17;;;;;;;13.73;5.20;;;;;;;;;;4994167;28;20423;-48
2023/05/04 04:55:43;;;;;;;11.82;4.40;;;;;;;;;;4994402;28;20212;-48
2023/05/04 04:58:09;;;;;;;12.57;5.13;;;;;;;;;;4995254;28;20248;-48
2023/05/04 05:00:35;;;;;;;12.95;5.30;;;;;;;;;;4995572;28;20502;-48
2023/05/04 05:03:02;;;;;;;13.75;5.00;;;;;;;;;;4994049;28;20225;-48
2023/05/04 05:05:28;;;;;;;12.45;5.20;;;;;;;;;;4995119;28;20193;-48
2023/05/04 05:07:53;;;;;;;13.07;5.47;;;;;;;;;;4994325;28;20189;-48
2023/05/04 05:10:23;;;;;;;11.68;5.43;;;;;;;;;;4994834;28;20528;-48
2023/05/04 05:12:50;;;;;;;11.48;5.22;;;;;;;;;;4994008;28;20192;-49
2023/05/04 05:15:16;;;;;;;10.30;4.35;;;;;;;;;;4993417;28;20264;-49
2023/05/04 05:17:41;;;;;;;7.75;3.70;;;;;;;;;;4992200;28;20530;-49
2023/05/04 05:20:10;;;;;;;10.20;4.18;;;;;;;;;;4992695;28;20181;-49
2023/05/04 05:22:36;;;;;;;7.68;4.30;;;;;;;;;;4995029;28;20237;-49
2023/05/04 05:25:03;;;;;;;8.20;3.95;;;;;;;;;;4995506;28;20192;-49
2023/05/04 05:27:29;;;;;;;8.88;3.90;;;;;;;;;;4995007;28;20624;-49
2023/05/04 05:29:55;;;;;;;12.52;3.92;;;;;;;;;;4994436;28;20227;-49
2023/05/04 05:32:20;;;;;;;8.40;3.75;;;;;;;;;;4995198;28;20640;-49
2023/05/04 05:34:47;;;;;;;10.32;4.20;;;;;;;;;;4995063;28;20185;-49
2023/05/04 05:37:13;;;;;;;8.27;3.45;;;;;;;;;;4994801;28;20243;-49
2023/05/04 05:39:38;;;;;;;10.25;3.63;;;;;;;;;;4994606;28;20564;-49
2023/05/04 05:42:04;;;;;;;8.15;3.50;;;;;;;;;;4995133;28;20181;-49
2023/05/04 05:44:30;;;;;;;6.65;3.88;;;;;;;;;;4994605;28;20557;-49
2023/05/04 05:46:56;;;;;;;8.02;3.67;;;;;;;;;;4995009;28;20243;-49
2023/05/04 05:49:22;;;;;;;7.45;3.47;;;;;;;;;;4994209;28;20185;-49
2023/05/04 05:51:48;;;;;;;8.85;3.85;;;;;;;;;;4994762;28;20215;-49
2023/05/04 05:54:14;;;;;;;7.43;3.75;;;;;;;;;;4995126;28;20177;-49
2023/05/04 05:56:40;;;;;;;9.85;3.90;;;;;;;;;;4994943;28;20553;-49
2023/05/04 05:59:06;;;;;;;5.43;3.17;;;;;;;;;;4993263;28;20188;-49
2023/05/04 06:01:32;;;;;;;6.05;3.42;;;;;;;;;;4994424;28;20185;-49
2023/05/04 06:03:58;;;;;;;6.95;3.60;;;;;;;;;;4992999;28;20196;-49
2023/05/04 06:06:24;;;;;;;5.43;3.40;;;;;;;;;;4993783;28;20577;-49
2023/05/04 06:08:50;;;;;;;6.18;3.25;;;;;;;;;;4991922;28;20199;-49
2023/05/04 06:11:16;;;;;;;6.60;3.50;;;;;;;;;;4992085;28;20289;-49
2023/05/04 06:13:42;;;;;;;9.02;3.45;;;;;;;;;;4992412;28;20181;-49
2023/05/04 06:16:08;;;;;;;7.60;2.90;;;;;;;;;;4994715;28;20216;-49
2023/05/04 06:18:34;;;;;;;6.25;3.35;;;;;;;;;;4992274;28;20240;-49
2023/05/04 06:21:00;;;;;;;6.78;3.28;;;;;;;;;;4992367;28;20268;-49
2023/05/04 06:23:30;;;;;;;5.30;3.00;;;;;;;;;;4994075;28;20225;-49
2023/05/04 06:25:56;;;;;;;5.80;3.38;;;;;;;;;;4985765;28;20192;-49
2023/05/04 06:28:21;;;;;;;4.70;2.92;;;;;;;;;;4993751;28;20181;-49
2023/05/04 06:30:48;;;;;;;7.78;3.03;;;;;;;;;;4994360;28;20288;-49
2023/05/04 06:33:14;;;;;;;4.10;2.88;;;;;;;;;;4992827;28;20198;-49
2023/05/04 06:35:40;;;;;;;6.82;3.00;;;;;;;;;;4993419;28;20186;-49
2023/05/04 06:38:06;;;;;;;5.63;2.80;;;;;;;;;;4993814;28;20252;-49
2023/05/04 06:40:31;;;;;;;5.53;3.10;;;;;;;;;;4994171;28;20181;-49
2023/05/04 06:42:57;;;;;;;3.95;2.60;;;;;;;;;;4992889;28;20735;-49
2023/05/04 06:45:23;;;;;;;6.70;3.55;;;;;;;;;;4993369;28;20184;-49
2023/05/04 06:47:51;;;;;;;3.75;2.63;;;;;;;;;;4993628;28;20195;-48
2023/05/04 06:50:17;;;;;;;5.25;2.50;;;;;;;;;;4992526;28;20197;-48
2023/05/04 06:52:43;;;;;;;4.35;2.33;;;;;;;;;;4993643;28;20189;-48
2023/05/04 06:55:10;;;;;;;4.10;2.58;;;;;;;;;;4992727;28;20193;-48
2023/05/04 06:57:36;;;;;;;7.05;3.17;;;;;;;;;;4993154;28;20190;-49
2023/05/04 07:00:03;;;;;;;3.80;2.53;;;;;;;;;;4993651;28;20189;-49
2023/05/04 07:02:29;;;;;;;2.67;2.20;;;;;;;;;;4996825;28;20623;-49
2023/05/04 07:04:55;;;;;;;4.15;2.50;;;;;;;;;;4997190;28;20185;-49
2023/05/04 07:07:22;;;;;;;4.30;2.83;;;;;;;;;;4996340;28;20185;-49
2023/05/04 07:09:49;;;;;;;4.63;2.53;;;;;;;;;;4996382;28;20185;-49
2023/05/04 07:12:15;;;;;;;5.47;2.60;;;;;;;;;;4995465;28;20219;-49
2023/05/04 07:14:41;;;;;;;4.75;2.60;;;;;;;;;;4996525;28;20574;-49
2023/05/04 07:17:09;;;;;;;3.60;2.25;;;;;;;;;;4995416;28;20256;-49
2023/05/04 07:19:35;;;;;;;3.28;2.10;;;;;;;;;;4994559;28;20192;-49
2023/05/04 07:22:01;;;;;;;4.72;2.58;;;;;;;;;;4996992;28;20204;-49
2023/05/04 07:24:30;;;;;;;4.13;2.15;;;;;;;;;;4995892;28;20237;-49
2023/05/04 07:26:56;;;;;;;3.15;2.15;;;;;;;;;;4997175;28;20193;-49
2023/05/04 07:29:22;;;;;;;3.22;2.38;;;;;;;;;;4996215;28;20235;-49
2023/05/04 07:31:48;;;;;;;5.63;2.35;;;;;;;;;;4996509;28;20323;-49
2023/05/04 07:34:14;;;;;;;3.25;2.10;;;;;;;;;;4996626;28;20200;-49
2023/05/04 07:36:40;;;;;;;3.20;2.33;;;;;;;;;;4995921;28;20441;-49
2023/05/04 07:39:06;;;;;;;6.15;2.55;;;;;;;;;;4995564;28;20541;-49
2023/05/04 07:41:32;;;;;;;3.30;2.03;;;;;;;;;;4996320;28;20189;-49
2023/05/04 07:43:58;;;;;;;2.05;1.80;;;;;;;;;;4994535;28;20189;-49
2023/05/04 07:46:24;;;;;;;2.45;1.95;;;;;;;;;;4996854;28;20185;-49
2023/05/04 07:48:50;;;;;;;2.40;2.15;;;;;;;;;;4996513;28;20588;-49
2023/05/04 07:51:17;;;;;;;4.20;2.10;;;;;;;;;;4996509;28;20336;-49
2023/05/04 07:53:43;;;;;;;2.80;1.83;;;;;;;;;;4996619;28;20187;-49
2023/05/04 07:56:12;;;;;;;3.33;1.92;;;;;;;;;;4996423;28;20276;-49
2023/05/04 07:58:38;;;;;;;3.97;2.25;;;;;;;;;;4996242;28;20252;-49
2023/05/04 08:01:04;;;;;;;5.07;2.50;;;;;;;;;;4996696;28;20173;-49
2023/05/04 08:03:31;;;;;;;5.30;2.22;;;;;;;;;;4996157;28;20283;-49
2023/05/04 08:05:57;;;;;;;2.70;2.33;;;;;;;;;;4996220;28;20181;-49
2023/05/04 08:08:23;;;;;;;2.58;1.70;;;;;;;;;;4996260;28;20181;-49
2023/05/04 08:10:49;;;;;;;2.20;1.50;;;;;;;;;;4996597;28;20466;-49
2023/05/04 08:13:15;;;;;;;2.03;1.83;;;;;;;;;;4995313;28;20510;-49
2023/05/04 08:15:41;;;;;;;3.05;1.90;;;;;;;;;;4996576;28;20272;-49
2023/05/04 08:18:07;;;;;;;1.92;1.65;;;;;;;;;;4995719;28;20573;-49
2023/05/04 08:20:33;;;;;;;2.63;1.80;;;;;;;;;;4996101;28;20177;-49
2023/05/04 08:23:01;;;;;;;2.63;2.00;;;;;;;;;;4996043;28;20177;-49
2023/05/04 08:25:27;;;;;;;2.75;1.40;;;;;;;;;;4996597;28;20278;-49
2023/05/04 08:27:53;;;;;;;3.47;2.15;;;;;;;;;;4995611;28;20227;-48
2023/05/04 08:30:19;;;;;;;1.95;1.70;;;;;;;;;;4996362;28;20235;-48
2023/05/04 08:32:45;;;;;;;4.00;2.30;;;;;;;;;;4995952;28;20177;-48
2023/05/04 08:35:11;;;;;;;2.50;1.90;;;;;;;;;;4995911;28;20189;-49
2023/05/04 08:37:37;;;;;;;2.20;2.00;;;;;;;;;;4995189;28;20268;-49
2023/05/04 08:40:04;;;;;;;2.72;1.83;;;;;;;;;;4996095;28;20178;-49
2023/05/04 08:42:31;;;;;;;3.95;1.88;;;;;;;;;;4996080;28;20184;-49
2023/05/04 08:44:57;;;;;;;3.22;1.70;;;;;;;;;;4996120;28;20622;-48
2023/05/04 08:47:27;;;;;;;2.25;2.05;;;;;;;;;;4994543;28;20181;-48
2023/05/04 08:49:55;;;;;;;2.53;1.90;;;;;;;;;;4993543;28;20192;-49
2023/05/04 08:52:24;;;;;;;2.25;1.80;;;;;;;;;;4993431;28;20627;-49
2023/05/04 08:54:54;;;;;;;2.10;1.90;;;;;;;;;;4994779;28;20517;-49
2023/05/04 08:57:22;;;;;;;2.38;1.67;;;;;;;;;;4995200;28;20307;-49
2023/05/04 08:59:51;;;;;;;3.03;1.90;;;;;;;;;;4994774;28;20184;-50
2023/05/04 09:02:18;;;;;;;1.85;1.67;;;;;;;;;;4995104;28;20173;-49
2023/05/04 09:04:44;;;;;;;2.78;1.73;;;;;;;;;;4995372;28;20193;-49
2023/05/04 09:07:11;;;;;;;2.47;1.85;;;;;;;;;;4977838;28;20192;-49
2023/05/04 09:09:37;;;;;;;2.38;1.88;;;;;;;;;;4995458;28;20195;-49
2023/05/04 09:12:03;;;;;;;2.67;1.75;;;;;;;;;;4986641;28;20204;-49
2023/05/04 09:14:33;;;;;;;3.50;1.88;;;;;;;;;;4995374;28;20207;-49
2023/05/04 09:17:00;;;;;;;2.05;1.70;;;;;;;;;;4995067;28;20204;-49
2023/05/04 09:19:32;;;;;;;2.45;1.67;;;;;;;;;;4994223;28;20612;-49
2023/05/04 09:21:58;;;;;;;2.10;1.60;;;;;;;;;;4992803;28;20185;-49
2023/05/04 09:24:30;;;;;;;1.95;1.60;;;;;;;;;;4994292;28;20208;-49
2023/05/04 09:27:07;;;;;;;3.20;1.88;;;;;;;;;;4993157;28;20564;-49
2023/05/04 09:29:36;;;;;;;1.75;1.65;;;;;;;;;;4994256;28;20212;-49
2023/05/04 09:32:03;;;;;;;1.42;1.33;;;;;;;;;;4994374;28;20313;-49
2023/05/04 09:34:31;;;;;;;1.80;1.70;;;;;;;;;;4993989;28;20483;-49
2023/05/04 09:37:00;;;;;;;1.88;1.65;;;;;;;;;;4993959;28;20607;-49
2023/05/04 09:39:27;;;;;;;1.80;1.70;;;;;;;;;;4993628;28;20260;-49
2023/05/04 09:41:53;;;;;;;3.03;2.05;;;;;;;;;;4994354;28;20272;-49
2023/05/04 09:44:22;;;;;;;3.03;1.77;;;;;;;;;;4994094;28;20189;-49
2023/05/04 09:46:52;;;;;;;2.33;1.40;;;;;;;;;;4994123;28;20680;-49
2023/05/04 09:49:19;;;;;;;2.53;1.75;;;;;;;;;;4993341;28;20173;-49
2023/05/04 09:51:46;;;;;;;1.90;1.80;;;;;;;;;;4993761;28;20204;-49
2023/05/04 09:54:12;;;;;;;2.38;1.75;;;;;;;;;;4994093;28;20195;-49
2023/05/04 09:56:44;;;;;;;1.67;1.55;;;;;;;;;;4993665;28;20208;-49
2023/05/04 09:59:10;;;;;;;1.90;1.80;;;;;;;;;;4986160;28;20297;-49
2023/05/04 10:01:36;;;;;;;1.85;1.75;;;;;;;;;;4994368;28;20192;-49
2023/05/04 10:04:03;;;;;;;3.25;1.60;;;;;;;;;;4993380;28;20193;-49
2023/05/04 10:06:29;;;;;;;2.78;1.60;;;;;;;;;;4994126;28;20220;-49
2023/05/04 10:08:55;;;;;;;3.22;2.17;;;;;;;;;;4994155;28;20212;-49
2023/05/04 10:11:24;;;;;;;2.42;2.20;;;;;;;;;;4993719;28;20205;-49
2023/05/04 10:13:50;;;;;;;2.30;1.70;;;;;;;;;;4991561;28;20249;-49
2023/05/04 10:16:23;;;;;;;1.92;1.70;;;;;;;;;;4994623;28;20175;-49
2023/05/04 10:19:08;;;;;;;1.60;1.50;;;;;;;;;;4993233;28;20181;-49
2023/05/04 10:21:41;;;;;;;1.60;1.50;;;;;;;;;;4994250;28;20272;-49
2023/05/04 10:24:13;;;;;;;2.92;2.05;;;;;;;;;;4994416;28;20460;-49
2023/05/04 10:26:42;;;;;;;2.83;2.10;;;;;;;;;;4993384;28;20186;-49
2023/05/04 10:29:24;;;;;;;2.33;1.88;;;;;;;;;;4986514;28;20203;-49
2023/05/04 10:31:50;;;;;;;3.15;2.00;;;;;;;;;;4993846;28;20224;-49
2023/05/04 10:34:23;;;;;;;3.65;2.17;;;;;;;;;;4993857;28;20521;-49
2023/05/04 10:36:49;;;;;;;3.90;2.00;;;;;;;;;;4996713;28;20185;-49
2023/05/04 10:39:22;;;;;;;3.00;1.58;;;;;;;;;;4996475;28;20181;-49
2023/05/04 10:41:58;;;;;;;2.25;1.90;;;;;;;;;;4996489;28;20181;-49
2023/05/04 10:44:24;;;;;;;2.35;1.73;;;;;;;;;;4997062;28;20459;-49
2023/05/04 10:47:16;;;;;;;3.45;1.88;;;;;;;;;;4980998;28;20197;-49
2023/05/04 10:49:42;;;;;;;2.33;2.13;;;;;;;;;;4993655;28;20201;-49
2023/05/04 10:52:14;;;;;;;3.30;1.85;;;;;;;;;;4997976;28;20620;-49
2023/05/04 10:54:41;;;;;;;4.25;2.10;;;;;;;;;;4996718;28;20169;-49
2023/05/04 10:57:10;;;;;;;2.65;1.75;;;;;;;;;;4996939;28;20460;-49
2023/05/04 10:59:36;;;;;;;3.15;1.90;;;;;;;;;;4995721;28;20181;-49
2023/05/04 11:02:03;;;;;;;2.97;1.60;;;;;;;;;;4997124;28;20557;-49
2023/05/04 11:04:31;;;;;;;2.38;1.83;;;;;;;;;;4997061;28;20213;-49
2023/05/04 11:06:57;;;;;;;5.05;2.33;;;;;;;;;;4997182;28;20185;-49
2023/05/04 11:09:25;;;;;;;2.13;1.90;;;;;;;;;;4995626;28;20220;-49
2023/05/04 11:11:52;;;;;;;2.47;2.03;;;;;;;;;;4996761;28;20229;-49
2023/05/04 11:14:25;;;;;;;1.92;1.80;;;;;;;;;;4995720;28;20268;-49
2023/05/04 11:16:51;;;;;;;2.25;1.80;;;;;;;;;;4996358;28;20261;-49
2023/05/04 11:19:17;;;;;;;2.35;2.10;;;;;;;;;;4996203;28;20445;-49
2023/05/04 11:21:43;;;;;;;2.78;1.85;;;;;;;;;;4996952;28;20196;-49
2023/05/04 11:24:09;;;;;;;2.15;1.88;;;;;;;;;;4996731;28;20205;-49
2023/05/04 11:26:45;;;;;;;3.28;1.98;;;;;;;;;;4996618;28;20267;-49
2023/05/04 11:29:12;;;;;;;4.13;1.92;;;;;;;;;;4994952;28;20180;-50
2023/05/04 11:31:38;;;;;;;2.40;1.88;;;;;;;;;;4995728;28;20311;-49
2023/05/04 11:34:05;;;;;;;1.73;1.60;;;;;;;;;;4996703;28;20585;-49
2023/05/04 11:36:37;;;;;;;4.60;1.88;;;;;;;;;;4996058;28;20177;-49
2023/05/04 11:39:05;;;;;;;2.85;2.10;;;;;;;;;;4995331;28;20181;-49
2023/05/04 11:41:31;;;;;;;6.80;2.00;;;;;;;;;;4997335;28;20187;-49
2023/05/04 11:43:59;;;;;;;4.00;1.90;;;;;;;;;;4996057;28;20194;-49
2023/05/04 11:46:25;;;;;;;3.15;1.85;;;;;;;;;;4995246;28;20523;-49
2023/05/04 11:48:51;;;;;;;4.53;2.10;;;;;;;;;;4995787;28;20189;-50
2023/05/04 11:51:17;;;;;;;2.17;1.98;;;;;;;;;;4995905;28;20233;-49
2023/05/04 11:53:43;;;;;;;3.35;1.80;;;;;;;;;;4996550;28;20209;-49
2023/05/04 11:56:09;;;;;;;2.58;1.65;;;;;;;;;;4995923;28;20193;-49
2023/05/04 11:58:35;;;;;;;2.88;1.95;;;;;;;;;;4996105;28;20189;-49
2023/05/04 12:01:02;;;;;;;3.42;1.98;;;;;;;;;;4994628;28;20216;-49
2023/05/04 12:03:30;;;;;;;2.78;1.88;;;;;;;;;;4996190;28;20189;-49
2023/05/04 12:05:57;;;;;;;2.95;1.70;;;;;;;;;;4994899;28;20212;-49
2023/05/04 12:08:28;;;;;;;4.97;1.90;;;;;;;;;;4994431;28;20185;-49
2023/05/04 12:11:10;;;;;;;3.10;1.63;;;;;;;;;;4995554;28;20256;-49
2023/05/04 12:13:36;;;;;;;1.90;1.80;;;;;;;;;;4995542;28;20196;-49
2023/05/04 12:16:12;;;;;;;3.08;1.92;;;;;;;;;;4994614;28;20185;-49
2023/05/04 12:18:38;;;;;;;3.13;1.80;;;;;;;;;;4994758;28;20211;-49
2023/05/04 12:21:08;;;;;;;2.28;1.83;;;;;;;;;;4994723;28;20188;-49
2023/05/04 12:23:35;;;;;;;2.30;1.90;;;;;;;;;;4995819;28;20231;-49
2023/05/04 12:26:01;;;;;;;2.13;1.95;;;;;;;;;;4994819;28;20185;-49
2023/05/04 12:28:28;;;;;;;2.42;1.58;;;;;;;;;;4992523;28;20215;-49
2023/05/04 12:30:54;;;;;;;2.70;1.65;;;;;;;;;;4995246;28;20226;-49
2023/05/04 12:33:20;;;;;;;2.97;1.58;;;;;;;;;;4996156;28;20181;-49
2023/05/04 12:35:46;;;;;;;3.00;1.75;;;;;;;;;;4994351;28;20200;-49
2023/05/04 12:38:12;;;;;;;1.77;1.65;;;;;;;;;;4995353;28;20188;-49
2023/05/04 12:40:38;;;;;;;3.10;1.95;;;;;;;;;;4994520;28;20515;-49
2023/05/04 12:43:04;;;;;;;2.78;1.50;;;;;;;;;;4995822;28;20624;-49
2023/05/04 12:45:30;;;;;;;3.70;1.80;;;;;;;;;;4993612;28;20400;-49
2023/05/04 12:47:56;;;;;;;2.65;1.55;;;;;;;;;;4994504;28;20190;-49
2023/05/04 12:50:22;;;;;;;7.28;1.73;;;;;;;;;;4995395;28;20189;-49
2023/05/04 12:52:48;;;;;;;2.00;1.80;;;;;;;;;;4994075;28;20281;-49
2023/05/04 12:55:14;;;;;;;2.70;2.05;;;;;;;;;;4994342;28;20220;-49
2023/05/04 12:57:42;;;;;;;5.88;1.90;;;;;;;;;;4993466;28;20185;-49
2023/05/04 13:00:09;;;;;;;2.40;1.88;;;;;;;;;;4993704;28;20189;-49
2023/05/04 13:02:34;;;;;;;3.13;1.80;;;;;;;;;;4994672;28;20209;-49
2023/05/04 13:05:00;;;;;;;3.70;1.70;;;;;;;;;;4994928;28;20195;-49
2023/05/04 13:07:26;;;;;;;3.67;2.10;;;;;;;;;;4994497;28;20268;-49
2023/05/04 13:09:52;;;;;;;3.17;2.00;;;;;;;;;;4992604;28;20200;-49
2023/05/04 13:12:18;;;;;;;2.00;1.50;;;;;;;;;;4993927;28;20212;-49
2023/05/04 13:14:44;;;;;;;4.72;2.05;;;;;;;;;;4995231;28;20207;-49
2023/05/04 13:17:10;;;;;;;2.10;1.90;;;;;;;;;;4993505;28;20185;-49
2023/05/04 13:19:37;;;;;;;3.05;1.90;;;;;;;;;;4993863;28;20197;-49
2023/05/04 13:22:04;;;;;;;2.15;1.70;;;;;;;;;;4992584;28;20612;-49
2023/05/04 13:24:30;;;;;;;2.10;1.90;;;;;;;;;;4994061;28;20220;-49
2023/05/04 13:26:57;;;;;;;2.15;1.95;;;;;;;;;;4993315;28;20486;-49
2023/05/04 13:29:23;;;;;;;2.70;1.70;;;;;;;;;;4992926;28;20239;-49
2023/05/04 13:31:49;;;;;;;2.83;2.05;;;;;;;;;;4994526;28;20217;-49
2023/05/04 13:34:15;;;;;;;1.70;1.60;;;;;;;;;;4994257;28;20808;-49
2023/05/04 13:36:41;;;;;;;3.53;1.95;;;;;;;;;;4991326;28;20181;-49
2023/05/04 13:39:07;;;;;;;2.22;1.67;;;;;;;;;;4993271;28;20493;-49
2023/05/04 13:41:33;;;;;;;7.13;1.83;;;;;;;;;;4993976;28;20189;-49
2023/05/04 13:43:59;;;;;;;7.25;2.00;;;;;;;;;;4994462;28;20263;-49
2023/05/04 13:46:25;;;;;;;19.50;3.15;;;;;;;;;;4993248;28;20235;-49
2023/05/04 13:48:51;;;;;;;11.77;2.13;;;;;;;;;;4992226;28;20542;-49
2023/05/04 13:51:17;;;;;;;9.40;1.90;;;;;;;;;;4992193;28;20683;-49
2023/05/04 13:53:43;;;;;;;6.60;2.40;;;;;;;;;;4994142;28;20217;-49
2023/05/04 13:56:09;;;;;;;5.85;2.53;;;;;;;;;;4993710;28;20212;-49
2023/05/04 13:58:35;;;;;;;7.00;2.08;;;;;;;;;;4992852;28;20271;-49
2023/05/04 14:01:01;;;;;;;5.82;2.10;;;;;;;;;;4994330;28;20221;-49
2023/05/04 14:03:28;;;;;;;4.75;2.25;;;;;;;;;;4994461;28;20220;-49
2023/05/04 14:05:54;;;;;;;4.45;1.90;;;;;;;;;;4993620;28;20181;-49
2023/05/04 14:08:20;;;;;;;4.35;2.08;;;;;;;;;;4992113;28;20192;-49
2023/05/04 14:10:46;;;;;;;2.80;1.70;;;;;;;;;;4996693;28;20212;-49
2023/05/04 14:13:12;;;;;;;4.22;1.80;;;;;;;;;;4996199;28;20251;-49
2023/05/04 14:15:38;;;;;;;3.33;1.90;;;;;;;;;;4996717;28;20209;-49
2023/05/04 14:18:04;;;;;;;3.60;1.90;;;;;;;;;;4996872;28;20188;-49
2023/05/04 14:20:30;;;;;;;3.22;1.65;;;;;;;;;;4995916;28;20192;-49
2023/05/04 14:22:55;;;;;;;2.05;1.80;;;;;;;;;;4997916;28;20180;-49
2023/05/04 14:25:21;;;;;;;5.15;2.40;;;;;;;;;;4998729;28;20549;-49
2023/05/04 14:27:47;;;;;;;3.13;1.73;;;;;;;;;;4996698;28;20183;-49
2023/05/04 14:30:13;;;;;;;3.20;1.88;;;;;;;;;;4997189;28;20181;-49
2023/05/04 14:32:40;;;;;;;6.03;2.03;;;;;;;;;;4997643;28;20571;-49
2023/05/04 14:35:08;;;;;;;5.05;1.65;;;;;;;;;;4998239;28;20579;-49
2023/05/04 14:37:35;;;;;;;4.05;1.88;;;;;;;;;;4996255;28;20640;-49